sensor_id;sensor_type;location;lat;lon;timestamp;P1;durP1;ratioP1;P2;durP2;ratioP2
20749;SDS011;10535;50.664;4.564;2023-05-29T00:01:02;8.93;;;3.07;;
20749;SDS011;10535;50.664;4.564;2023-05-29T00:03:29;5.80;;;2.20;;
20749;SDS011;10535;50.664;4.564;2023-05-29T00:06:05;3.93;;;2.87;;
20749;SDS011;10535;50.664;4.564;2023-05-29T00:08:36;5.97;;;2.73;;
20749;SDS011;10535;50.664;4.564;2023-05-29T00:11:04;8.13;;;2.80;;
20749;SDS011;10535;50.664;4.564;2023-05-29T00:13:32;7.17;;;2.90;;
20749;SDS011;10535;50.664;4.564;2023-05-29T00:15:58;3.90;;;2.50;;
20749;SDS011;10535;50.664;4.564;2023-05-29T00:18:25;7.40;;;2.70;;
20749;SDS011;10535;50.664;4.564;2023-05-29T00:20:52;6.10;;;2.53;;
20749;SDS011;10535;50.664;4.564;2023-05-29T00:23:18;4.53;;;2.10;;
20749;SDS011;10535;50.664;4.564;2023-05-29T00:25:44;4.37;;;2.43;;
20749;SDS011;10535;50.664;4.564;2023-05-29T00:28:10;8.00;;;2.60;;
20749;SDS011;10535;50.664;4.564;2023-05-29T00:30:37;6.77;;;2.70;;
20749;SDS011;10535;50.664;4.564;2023-05-29T00:33:04;6.00;;;2.63;;
20749;SDS011;10535;50.664;4.564;2023-05-29T00:35:30;6.97;;;3.10;;
20749;SDS011;10535;50.664;4.564;2023-05-29T00:37:56;2.03;;;1.63;;
20749;SDS011;10535;50.664;4.564;2023-05-29T00:40:23;6.53;;;3.47;;
20749;SDS011;10535;50.664;4.564;2023-05-29T00:42:48;7.07;;;3.00;;
20749;SDS011;10535;50.664;4.564;2023-05-29T00:45:14;6.13;;;3.00;;
20749;SDS011;10535;50.664;4.564;2023-05-29T00:47:41;9.17;;;2.20;;
20749;SDS011;10535;50.664;4.564;2023-05-29T00:50:09;4.73;;;2.23;;
20749;SDS011;10535;50.664;4.564;2023-05-29T00:52:38;6.67;;;2.40;;
20749;SDS011;10535;50.664;4.564;2023-05-29T00:55:06;3.70;;;2.90;;
20749;SDS011;10535;50.664;4.564;2023-05-29T00:57:42;7.27;;;3.17;;
20749;SDS011;10535;50.664;4.564;2023-05-29T01:00:10;6.80;;;3.07;;
20749;SDS011;10535;50.664;4.564;2023-05-29T01:02:40;10.10;;;3.80;;
20749;SDS011;10535;50.664;4.564;2023-05-29T01:05:10;6.87;;;2.80;;
20749;SDS011;10535;50.664;4.564;2023-05-29T01:07:46;5.70;;;3.33;;
20749;SDS011;10535;50.664;4.564;2023-05-29T01:10:15;7.67;;;4.07;;
20749;SDS011;10535;50.664;4.564;2023-05-29T01:26:47;5.40;;;2.90;;
20749;SDS011;10535;50.664;4.564;2023-05-29T01:29:24;6.80;;;3.57;;
20749;SDS011;10535;50.664;4.564;2023-05-29T01:31:55;9.20;;;3.13;;
20749;SDS011;10535;50.664;4.564;2023-05-29T01:34:22;6.87;;;3.60;;
20749;SDS011;10535;50.664;4.564;2023-05-29T01:36:52;4.33;;;3.53;;
20749;SDS011;10535;50.664;4.564;2023-05-29T01:39:18;5.73;;;3.30;;
20749;SDS011;10535;50.664;4.564;2023-05-29T01:41:46;16.80;;;3.87;;
20749;SDS011;10535;50.664;4.564;2023-05-29T01:44:13;8.10;;;4.13;;
20749;SDS011;10535;50.664;4.564;2023-05-29T01:46:41;12.20;;;4.53;;
20749;SDS011;10535;50.664;4.564;2023-05-29T01:49:08;8.80;;;4.27;;
20749;SDS011;10535;50.664;4.564;2023-05-29T01:51:42;7.33;;;4.10;;
20749;SDS011;10535;50.664;4.564;2023-05-29T01:54:09;5.43;;;3.17;;
20749;SDS011;10535;50.664;4.564;2023-05-29T01:56:36;8.43;;;4.40;;
20749;SDS011;10535;50.664;4.564;2023-05-29T01:59:03;13.17;;;3.93;;
20749;SDS011;10535;50.664;4.564;2023-05-29T02:01:29;7.07;;;3.57;;
20749;SDS011;10535;50.664;4.564;2023-05-29T02:03:55;9.03;;;4.53;;
20749;SDS011;10535;50.664;4.564;2023-05-29T02:06:21;9.83;;;3.83;;
20749;SDS011;10535;50.664;4.564;2023-05-29T02:08:47;5.53;;;3.77;;
20749;SDS011;10535;50.664;4.564;2023-05-29T02:11:13;8.83;;;4.00;;
20749;SDS011;10535;50.664;4.564;2023-05-29T02:13:44;5.80;;;3.87;;
20749;SDS011;10535;50.664;4.564;2023-05-29T02:16:16;8.77;;;4.60;;
20749;SDS011;10535;50.664;4.564;2023-05-29T02:18:45;7.47;;;4.53;;
20749;SDS011;10535;50.664;4.564;2023-05-29T02:21:12;6.20;;;2.83;;
20749;SDS011;10535;50.664;4.564;2023-05-29T02:23:38;7.00;;;4.07;;
20749;SDS011;10535;50.664;4.564;2023-05-29T02:26:05;5.23;;;3.27;;
20749;SDS011;10535;50.664;4.564;2023-05-29T02:28:30;9.03;;;3.47;;
20749;SDS011;10535;50.664;4.564;2023-05-29T02:30:56;4.47;;;3.53;;
20749;SDS011;10535;50.664;4.564;2023-05-29T02:33:22;7.57;;;2.80;;
20749;SDS011;10535;50.664;4.564;2023-05-29T02:35:47;10.40;;;4.50;;
20749;SDS011;10535;50.664;4.564;2023-05-29T02:38:14;8.60;;;4.50;;
20749;SDS011;10535;50.664;4.564;2023-05-29T02:40:40;11.07;;;5.33;;
20749;SDS011;10535;50.664;4.564;2023-05-29T02:45:42;8.80;;;4.17;;
20749;SDS011;10535;50.664;4.564;2023-05-29T02:48:10;10.70;;;4.53;;
20749;SDS011;10535;50.664;4.564;2023-05-29T02:53:25;10.50;;;4.23;;
20749;SDS011;10535;50.664;4.564;2023-05-29T02:55:54;7.07;;;4.10;;
20749;SDS011;10535;50.664;4.564;2023-05-29T02:58:20;10.50;;;4.93;;
20749;SDS011;10535;50.664;4.564;2023-05-29T03:00:46;9.40;;;4.40;;
20749;SDS011;10535;50.664;4.564;2023-05-29T03:03:12;5.67;;;3.10;;
20749;SDS011;10535;50.664;4.564;2023-05-29T03:05:38;8.77;;;4.80;;
20749;SDS011;10535;50.664;4.564;2023-05-29T03:08:08;8.83;;;4.60;;
20749;SDS011;10535;50.664;4.564;2023-05-29T03:10:35;9.93;;;4.73;;
20749;SDS011;10535;50.664;4.564;2023-05-29T03:13:00;6.57;;;3.70;;
20749;SDS011;10535;50.664;4.564;2023-05-29T03:15:26;8.80;;;3.90;;
20749;SDS011;10535;50.664;4.564;2023-05-29T03:17:52;7.23;;;4.13;;
20749;SDS011;10535;50.664;4.564;2023-05-29T03:20:21;9.70;;;4.07;;
20749;SDS011;10535;50.664;4.564;2023-05-29T03:22:46;8.23;;;4.90;;
20749;SDS011;10535;50.664;4.564;2023-05-29T03:25:12;7.00;;;4.03;;
20749;SDS011;10535;50.664;4.564;2023-05-29T03:27:39;13.33;;;4.17;;
20749;SDS011;10535;50.664;4.564;2023-05-29T03:30:25;7.43;;;4.60;;
20749;SDS011;10535;50.664;4.564;2023-05-29T03:32:50;10.50;;;4.00;;
20749;SDS011;10535;50.664;4.564;2023-05-29T03:35:16;8.60;;;4.23;;
20749;SDS011;10535;50.664;4.564;2023-05-29T03:37:45;12.63;;;5.10;;
20749;SDS011;10535;50.664;4.564;2023-05-29T03:40:21;9.47;;;4.27;;
20749;SDS011;10535;50.664;4.564;2023-05-29T03:42:46;8.07;;;4.70;;
20749;SDS011;10535;50.664;4.564;2023-05-29T03:45:13;8.47;;;4.00;;
20749;SDS011;10535;50.664;4.564;2023-05-29T03:47:39;12.77;;;3.80;;
20749;SDS011;10535;50.664;4.564;2023-05-29T03:50:11;7.00;;;3.77;;
20749;SDS011;10535;50.664;4.564;2023-05-29T03:52:40;11.77;;;3.13;;
20749;SDS011;10535;50.664;4.564;2023-05-29T03:55:10;9.93;;;3.10;;
20749;SDS011;10535;50.664;4.564;2023-05-29T03:57:38;10.03;;;4.00;;
20749;SDS011;10535;50.664;4.564;2023-05-29T04:00:06;9.23;;;4.03;;
20749;SDS011;10535;50.664;4.564;2023-05-29T04:02:35;8.50;;;3.47;;
20749;SDS011;10535;50.664;4.564;2023-05-29T04:05:01;8.33;;;3.97;;
20749;SDS011;10535;50.664;4.564;2023-05-29T04:07:27;8.03;;;3.30;;
20749;SDS011;10535;50.664;4.564;2023-05-29T04:09:53;14.67;;;3.27;;
20749;SDS011;10535;50.664;4.564;2023-05-29T04:12:18;10.30;;;3.93;;
20749;SDS011;10535;50.664;4.564;2023-05-29T04:14:45;4.60;;;2.37;;
20749;SDS011;10535;50.664;4.564;2023-05-29T04:17:13;7.10;;;2.70;;
20749;SDS011;10535;50.664;4.564;2023-05-29T04:19:39;6.93;;;3.07;;
20749;SDS011;10535;50.664;4.564;2023-05-29T04:22:06;7.97;;;3.07;;
20749;SDS011;10535;50.664;4.564;2023-05-29T04:24:33;5.43;;;2.40;;
20749;SDS011;10535;50.664;4.564;2023-05-29T04:27:00;6.97;;;2.73;;
20749;SDS011;10535;50.664;4.564;2023-05-29T04:29:26;6.23;;;2.53;;
20749;SDS011;10535;50.664;4.564;2023-05-29T04:31:53;6.30;;;2.57;;
20749;SDS011;10535;50.664;4.564;2023-05-29T04:34:20;7.17;;;2.30;;
20749;SDS011;10535;50.664;4.564;2023-05-29T04:36:46;8.37;;;2.43;;
20749;SDS011;10535;50.664;4.564;2023-05-29T04:39:13;10.37;;;2.20;;
20749;SDS011;10535;50.664;4.564;2023-05-29T04:41:43;6.90;;;2.77;;
20749;SDS011;10535;50.664;4.564;2023-05-29T04:44:09;4.57;;;2.10;;
20749;SDS011;10535;50.664;4.564;2023-05-29T04:46:36;4.30;;;3.03;;
20749;SDS011;10535;50.664;4.564;2023-05-29T04:49:03;17.30;;;3.57;;
20749;SDS011;10535;50.664;4.564;2023-05-29T04:51:29;7.83;;;2.40;;
20749;SDS011;10535;50.664;4.564;2023-05-29T04:53:55;8.23;;;2.10;;
20749;SDS011;10535;50.664;4.564;2023-05-29T04:56:22;3.77;;;2.00;;
20749;SDS011;10535;50.664;4.564;2023-05-29T04:58:48;7.03;;;2.07;;
20749;SDS011;10535;50.664;4.564;2023-05-29T05:01:14;3.83;;;2.07;;
20749;SDS011;10535;50.664;4.564;2023-05-29T05:03:43;5.60;;;2.10;;
20749;SDS011;10535;50.664;4.564;2023-05-29T05:06:09;10.83;;;2.90;;
20749;SDS011;10535;50.664;4.564;2023-05-29T05:08:35;8.73;;;2.00;;
20749;SDS011;10535;50.664;4.564;2023-05-29T05:11:01;7.60;;;1.83;;
20749;SDS011;10535;50.664;4.564;2023-05-29T05:13:27;6.47;;;2.27;;
20749;SDS011;10535;50.664;4.564;2023-05-29T05:15:53;3.77;;;1.37;;
20749;SDS011;10535;50.664;4.564;2023-05-29T05:18:19;4.63;;;1.50;;
20749;SDS011;10535;50.664;4.564;2023-05-29T05:20:45;4.63;;;1.70;;
20749;SDS011;10535;50.664;4.564;2023-05-29T05:23:11;3.67;;;2.43;;
20749;SDS011;10535;50.664;4.564;2023-05-29T05:25:37;3.57;;;1.40;;
20749;SDS011;10535;50.664;4.564;2023-05-29T05:28:03;3.93;;;1.60;;
20749;SDS011;10535;50.664;4.564;2023-05-29T05:30:30;12.73;;;2.00;;
20749;SDS011;10535;50.664;4.564;2023-05-29T05:32:55;4.30;;;1.83;;
20749;SDS011;10535;50.664;4.564;2023-05-29T05:35:23;5.53;;;2.47;;
20749;SDS011;10535;50.664;4.564;2023-05-29T05:37:49;6.27;;;1.97;;
20749;SDS011;10535;50.664;4.564;2023-05-29T05:40:18;4.80;;;1.93;;
20749;SDS011;10535;50.664;4.564;2023-05-29T05:42:47;2.57;;;1.30;;
20749;SDS011;10535;50.664;4.564;2023-05-29T05:45:17;3.10;;;1.77;;
20749;SDS011;10535;50.664;4.564;2023-05-29T05:47:44;2.50;;;1.83;;
20749;SDS011;10535;50.664;4.564;2023-05-29T05:50:49;2.83;;;1.23;;
20749;SDS011;10535;50.664;4.564;2023-05-29T05:53:15;1.30;;;1.00;;
20749;SDS011;10535;50.664;4.564;2023-05-29T05:55:44;4.60;;;1.77;;
20749;SDS011;10535;50.664;4.564;2023-05-29T05:58:10;7.37;;;2.47;;
20749;SDS011;10535;50.664;4.564;2023-05-29T06:00:39;2.80;;;1.63;;
20749;SDS011;10535;50.664;4.564;2023-05-29T06:03:05;5.97;;;1.73;;
20749;SDS011;10535;50.664;4.564;2023-05-29T06:05:37;3.20;;;1.37;;
20749;SDS011;10535;50.664;4.564;2023-05-29T06:11:03;6.60;;;2.43;;
20749;SDS011;10535;50.664;4.564;2023-05-29T06:13:52;5.70;;;2.13;;
20749;SDS011;10535;50.664;4.564;2023-05-29T06:16:24;5.10;;;2.20;;
20749;SDS011;10535;50.664;4.564;2023-05-29T06:21:31;6.50;;;1.47;;
20749;SDS011;10535;50.664;4.564;2023-05-29T06:24:30;7.40;;;1.50;;
20749;SDS011;10535;50.664;4.564;2023-05-29T06:26:56;7.33;;;2.07;;
20749;SDS011;10535;50.664;4.564;2023-05-29T06:29:22;1.90;;;1.70;;
20749;SDS011;10535;50.664;4.564;2023-05-29T06:31:48;5.67;;;2.00;;
20749;SDS011;10535;50.664;4.564;2023-05-29T06:34:13;5.83;;;1.37;;
20749;SDS011;10535;50.664;4.564;2023-05-29T06:36:39;7.33;;;1.60;;
20749;SDS011;10535;50.664;4.564;2023-05-29T06:39:06;6.10;;;1.83;;
20749;SDS011;10535;50.664;4.564;2023-05-29T06:41:32;7.23;;;2.13;;
20749;SDS011;10535;50.664;4.564;2023-05-29T06:43:57;5.27;;;1.80;;
20749;SDS011;10535;50.664;4.564;2023-05-29T06:46:23;2.77;;;1.93;;
20749;SDS011;10535;50.664;4.564;2023-05-29T06:48:49;9.13;;;2.17;;
20749;SDS011;10535;50.664;4.564;2023-05-29T06:51:15;6.97;;;2.30;;
20749;SDS011;10535;50.664;4.564;2023-05-29T06:53:41;10.60;;;1.57;;
20749;SDS011;10535;50.664;4.564;2023-05-29T06:56:06;9.53;;;2.13;;
20749;SDS011;10535;50.664;4.564;2023-05-29T06:58:32;6.10;;;2.50;;
20749;SDS011;10535;50.664;4.564;2023-05-29T07:01:04;3.47;;;1.77;;
20749;SDS011;10535;50.664;4.564;2023-05-29T07:03:30;3.07;;;1.40;;
20749;SDS011;10535;50.664;4.564;2023-05-29T07:05:56;7.50;;;1.87;;
20749;SDS011;10535;50.664;4.564;2023-05-29T07:08:22;6.33;;;1.93;;
20749;SDS011;10535;50.664;4.564;2023-05-29T07:10:48;4.83;;;1.93;;
20749;SDS011;10535;50.664;4.564;2023-05-29T07:13:17;6.80;;;2.27;;
20749;SDS011;10535;50.664;4.564;2023-05-29T07:15:46;5.93;;;1.43;;
20749;SDS011;10535;50.664;4.564;2023-05-29T07:18:13;1.83;;;1.50;;
20749;SDS011;10535;50.664;4.564;2023-05-29T07:20:39;7.97;;;1.87;;
20749;SDS011;10535;50.664;4.564;2023-05-29T07:23:05;6.03;;;2.00;;
20749;SDS011;10535;50.664;4.564;2023-05-29T07:25:31;2.97;;;0.97;;
20749;SDS011;10535;50.664;4.564;2023-05-29T07:27:57;7.20;;;1.57;;
20749;SDS011;10535;50.664;4.564;2023-05-29T07:30:23;8.20;;;1.80;;
20749;SDS011;10535;50.664;4.564;2023-05-29T07:32:49;5.57;;;1.50;;
20749;SDS011;10535;50.664;4.564;2023-05-29T07:35:14;3.70;;;1.37;;
20749;SDS011;10535;50.664;4.564;2023-05-29T07:37:40;4.00;;;2.13;;
20749;SDS011;10535;50.664;4.564;2023-05-29T07:40:06;5.47;;;2.07;;
20749;SDS011;10535;50.664;4.564;2023-05-29T07:42:35;5.83;;;1.70;;
20749;SDS011;10535;50.664;4.564;2023-05-29T07:45:01;5.23;;;1.97;;
20749;SDS011;10535;50.664;4.564;2023-05-29T07:47:26;9.73;;;2.20;;
20749;SDS011;10535;50.664;4.564;2023-05-29T07:49:52;9.90;;;1.53;;
20749;SDS011;10535;50.664;4.564;2023-05-29T07:52:18;3.43;;;1.90;;
20749;SDS011;10535;50.664;4.564;2023-05-29T07:54:44;8.83;;;2.53;;
20749;SDS011;10535;50.664;4.564;2023-05-29T07:57:10;3.07;;;1.90;;
20749;SDS011;10535;50.664;4.564;2023-05-29T07:59:44;10.27;;;2.10;;
20749;SDS011;10535;50.664;4.564;2023-05-29T08:02:10;11.03;;;2.13;;
20749;SDS011;10535;50.664;4.564;2023-05-29T08:04:36;4.13;;;1.70;;
20749;SDS011;10535;50.664;4.564;2023-05-29T08:07:02;5.97;;;2.80;;
20749;SDS011;10535;50.664;4.564;2023-05-29T08:09:31;5.87;;;1.93;;
20749;SDS011;10535;50.664;4.564;2023-05-29T08:11:57;1.77;;;1.37;;
20749;SDS011;10535;50.664;4.564;2023-05-29T08:14:24;15.50;;;2.07;;
20749;SDS011;10535;50.664;4.564;2023-05-29T08:16:50;8.00;;;1.57;;
20749;SDS011;10535;50.664;4.564;2023-05-29T08:19:16;12.60;;;3.10;;
20749;SDS011;10535;50.664;4.564;2023-05-29T08:21:42;6.40;;;1.43;;
20749;SDS011;10535;50.664;4.564;2023-05-29T08:24:07;2.50;;;1.57;;
20749;SDS011;10535;50.664;4.564;2023-05-29T08:26:34;4.87;;;2.37;;
20749;SDS011;10535;50.664;4.564;2023-05-29T08:29:00;5.30;;;2.83;;
20749;SDS011;10535;50.664;4.564;2023-05-29T08:31:25;2.67;;;1.53;;
20749;SDS011;10535;50.664;4.564;2023-05-29T08:33:52;7.13;;;2.00;;
20749;SDS011;10535;50.664;4.564;2023-05-29T08:36:18;6.23;;;1.90;;
20749;SDS011;10535;50.664;4.564;2023-05-29T08:38:48;9.50;;;2.33;;
20749;SDS011;10535;50.664;4.564;2023-05-29T08:41:17;4.37;;;1.67;;
20749;SDS011;10535;50.664;4.564;2023-05-29T08:43:50;5.33;;;2.37;;
20749;SDS011;10535;50.664;4.564;2023-05-29T08:46:17;8.80;;;1.90;;
20749;SDS011;10535;50.664;4.564;2023-05-29T08:48:46;5.77;;;1.37;;
20749;SDS011;10535;50.664;4.564;2023-05-29T08:51:15;4.50;;;2.03;;
20749;SDS011;10535;50.664;4.564;2023-05-29T08:53:44;8.63;;;2.10;;
20749;SDS011;10535;50.664;4.564;2023-05-29T08:56:11;4.33;;;1.53;;
20749;SDS011;10535;50.664;4.564;2023-05-29T08:58:36;4.30;;;1.93;;
20749;SDS011;10535;50.664;4.564;2023-05-29T09:01:03;5.50;;;1.67;;
20749;SDS011;10535;50.664;4.564;2023-05-29T09:03:29;6.33;;;1.73;;
20749;SDS011;10535;50.664;4.564;2023-05-29T09:05:59;3.77;;;1.80;;
20749;SDS011;10535;50.664;4.564;2023-05-29T09:08:25;4.53;;;1.80;;
20749;SDS011;10535;50.664;4.564;2023-05-29T09:10:53;5.30;;;1.60;;
20749;SDS011;10535;50.664;4.564;2023-05-29T09:13:20;4.07;;;2.00;;
20749;SDS011;10535;50.664;4.564;2023-05-29T09:15:45;4.97;;;1.63;;
20749;SDS011;10535;50.664;4.564;2023-05-29T09:18:11;5.10;;;1.43;;
20749;SDS011;10535;50.664;4.564;2023-05-29T09:20:37;7.17;;;1.70;;
20749;SDS011;10535;50.664;4.564;2023-05-29T09:23:04;6.93;;;2.10;;
20749;SDS011;10535;50.664;4.564;2023-05-29T09:25:31;5.83;;;1.70;;
20749;SDS011;10535;50.664;4.564;2023-05-29T09:27:59;11.47;;;1.93;;
20749;SDS011;10535;50.664;4.564;2023-05-29T09:30:31;7.90;;;1.67;;
20749;SDS011;10535;50.664;4.564;2023-05-29T09:33:01;5.17;;;1.97;;
20749;SDS011;10535;50.664;4.564;2023-05-29T09:38:12;5.17;;;1.60;;
20749;SDS011;10535;50.664;4.564;2023-05-29T09:40:40;6.00;;;1.77;;
20749;SDS011;10535;50.664;4.564;2023-05-29T09:43:14;3.10;;;1.33;;
20749;SDS011;10535;50.664;4.564;2023-05-29T09:45:45;13.67;;;3.07;;
20749;SDS011;10535;50.664;4.564;2023-05-29T09:48:18;11.10;;;2.03;;
20749;SDS011;10535;50.664;4.564;2023-05-29T09:50:47;7.10;;;2.40;;
20749;SDS011;10535;50.664;4.564;2023-05-29T09:55:42;5.37;;;2.07;;
20749;SDS011;10535;50.664;4.564;2023-05-29T09:58:08;5.63;;;2.23;;
20749;SDS011;10535;50.664;4.564;2023-05-29T10:00:37;5.77;;;1.93;;
20749;SDS011;10535;50.664;4.564;2023-05-29T10:03:04;4.47;;;1.63;;
20749;SDS011;10535;50.664;4.564;2023-05-29T10:05:29;4.17;;;1.50;;
20749;SDS011;10535;50.664;4.564;2023-05-29T10:07:55;4.33;;;1.80;;
20749;SDS011;10535;50.664;4.564;2023-05-29T10:10:21;5.80;;;1.97;;
20749;SDS011;10535;50.664;4.564;2023-05-29T10:12:53;4.30;;;1.83;;
20749;SDS011;10535;50.664;4.564;2023-05-29T10:15:19;6.10;;;2.27;;
20749;SDS011;10535;50.664;4.564;2023-05-29T10:17:59;5.97;;;1.57;;
20749;SDS011;10535;50.664;4.564;2023-05-29T10:20:34;9.93;;;2.00;;
20749;SDS011;10535;50.664;4.564;2023-05-29T10:23:01;2.97;;;1.63;;
20749;SDS011;10535;50.664;4.564;2023-05-29T10:25:29;7.90;;;2.30;;
20749;SDS011;10535;50.664;4.564;2023-05-29T10:27:57;4.17;;;1.97;;
20749;SDS011;10535;50.664;4.564;2023-05-29T10:30:43;2.80;;;1.60;;
20749;SDS011;10535;50.664;4.564;2023-05-29T10:33:26;10.43;;;1.77;;
20749;SDS011;10535;50.664;4.564;2023-05-29T10:35:53;6.87;;;2.00;;
20749;SDS011;10535;50.664;4.564;2023-05-29T10:38:28;6.20;;;2.10;;
20749;SDS011;10535;50.664;4.564;2023-05-29T10:40:54;10.77;;;1.97;;
20749;SDS011;10535;50.664;4.564;2023-05-29T10:43:29;9.67;;;3.10;;
20749;SDS011;10535;50.664;4.564;2023-05-29T10:45:57;5.50;;;2.07;;
20749;SDS011;10535;50.664;4.564;2023-05-29T10:50:53;2.93;;;1.70;;
20749;SDS011;10535;50.664;4.564;2023-05-29T10:53:23;5.73;;;1.57;;
20749;SDS011;10535;50.664;4.564;2023-05-29T10:55:53;5.77;;;2.03;;
20749;SDS011;10535;50.664;4.564;2023-05-29T10:58:23;10.50;;;1.73;;
20749;SDS011;10535;50.664;4.564;2023-05-29T11:00:49;11.57;;;2.80;;
20749;SDS011;10535;50.664;4.564;2023-05-29T11:03:19;6.70;;;1.83;;
20749;SDS011;10535;50.664;4.564;2023-05-29T11:08:44;10.53;;;2.57;;
20749;SDS011;10535;50.664;4.564;2023-05-29T11:11:11;5.20;;;1.40;;
20749;SDS011;10535;50.664;4.564;2023-05-29T11:13:38;6.13;;;2.70;;
20749;SDS011;10535;50.664;4.564;2023-05-29T11:18:51;5.47;;;1.93;;
20749;SDS011;10535;50.664;4.564;2023-05-29T11:21:29;5.90;;;1.67;;
20749;SDS011;10535;50.664;4.564;2023-05-29T11:24:25;6.40;;;1.97;;
20749;SDS011;10535;50.664;4.564;2023-05-29T11:26:52;3.90;;;1.40;;
20749;SDS011;10535;50.664;4.564;2023-05-29T11:29:25;6.33;;;1.27;;
20749;SDS011;10535;50.664;4.564;2023-05-29T11:32:03;6.90;;;2.13;;
20749;SDS011;10535;50.664;4.564;2023-05-29T11:34:38;4.27;;;1.77;;
20749;SDS011;10535;50.664;4.564;2023-05-29T11:37:06;5.43;;;1.77;;
20749;SDS011;10535;50.664;4.564;2023-05-29T11:39:35;2.80;;;1.30;;
20749;SDS011;10535;50.664;4.564;2023-05-29T11:42:04;5.63;;;1.73;;
20749;SDS011;10535;50.664;4.564;2023-05-29T11:44:31;6.27;;;2.67;;
20749;SDS011;10535;50.664;4.564;2023-05-29T11:49:27;4.33;;;1.57;;
20749;SDS011;10535;50.664;4.564;2023-05-29T11:52:10;3.67;;;2.03;;
20749;SDS011;10535;50.664;4.564;2023-05-29T11:54:38;9.50;;;2.00;;
20749;SDS011;10535;50.664;4.564;2023-05-29T11:57:05;5.43;;;2.10;;
20749;SDS011;10535;50.664;4.564;2023-05-29T11:59:31;4.87;;;2.37;;
20749;SDS011;10535;50.664;4.564;2023-05-29T12:01:58;13.07;;;2.80;;
20749;SDS011;10535;50.664;4.564;2023-05-29T12:04:26;6.60;;;1.77;;
20749;SDS011;10535;50.664;4.564;2023-05-29T12:06:53;4.43;;;2.13;;
20749;SDS011;10535;50.664;4.564;2023-05-29T12:12:03;5.17;;;1.97;;
20749;SDS011;10535;50.664;4.564;2023-05-29T12:14:29;4.73;;;1.90;;
20749;SDS011;10535;50.664;4.564;2023-05-29T12:16:55;4.83;;;1.10;;
20749;SDS011;10535;50.664;4.564;2023-05-29T12:19:20;5.17;;;1.83;;
20749;SDS011;10535;50.664;4.564;2023-05-29T12:21:46;6.73;;;2.27;;
20749;SDS011;10535;50.664;4.564;2023-05-29T12:24:12;3.27;;;1.33;;
20749;SDS011;10535;50.664;4.564;2023-05-29T12:26:39;5.07;;;1.57;;
20749;SDS011;10535;50.664;4.564;2023-05-29T12:29:10;7.80;;;2.17;;
20749;SDS011;10535;50.664;4.564;2023-05-29T12:31:36;4.43;;;1.47;;
20749;SDS011;10535;50.664;4.564;2023-05-29T12:34:07;7.87;;;2.23;;
20749;SDS011;10535;50.664;4.564;2023-05-29T12:36:43;4.47;;;2.00;;
20749;SDS011;10535;50.664;4.564;2023-05-29T12:39:10;3.53;;;1.30;;
20749;SDS011;10535;50.664;4.564;2023-05-29T12:42:01;6.87;;;2.07;;
20749;SDS011;10535;50.664;4.564;2023-05-29T12:44:37;6.70;;;2.13;;
20749;SDS011;10535;50.664;4.564;2023-05-29T12:47:03;6.17;;;1.30;;
20749;SDS011;10535;50.664;4.564;2023-05-29T12:49:35;4.10;;;2.03;;
20749;SDS011;10535;50.664;4.564;2023-05-29T12:52:05;2.57;;;1.07;;
20749;SDS011;10535;50.664;4.564;2023-05-29T12:54:36;6.07;;;1.27;;
20749;SDS011;10535;50.664;4.564;2023-05-29T12:57:24;3.43;;;1.80;;
20749;SDS011;10535;50.664;4.564;2023-05-29T12:59:50;2.87;;;1.77;;
20749;SDS011;10535;50.664;4.564;2023-05-29T13:02:16;7.13;;;2.47;;
20749;SDS011;10535;50.664;4.564;2023-05-29T13:04:42;7.90;;;1.60;;
20749;SDS011;10535;50.664;4.564;2023-05-29T13:07:08;4.57;;;1.80;;
20749;SDS011;10535;50.664;4.564;2023-05-29T13:09:33;6.63;;;1.70;;
20749;SDS011;10535;50.664;4.564;2023-05-29T13:12:01;4.40;;;1.67;;
20749;SDS011;10535;50.664;4.564;2023-05-29T13:14:26;3.17;;;1.60;;
20749;SDS011;10535;50.664;4.564;2023-05-29T13:16:52;4.07;;;1.80;;
20749;SDS011;10535;50.664;4.564;2023-05-29T13:19:18;6.20;;;2.53;;
20749;SDS011;10535;50.664;4.564;2023-05-29T13:21:43;8.20;;;2.17;;
20749;SDS011;10535;50.664;4.564;2023-05-29T13:24:21;4.60;;;2.30;;
20749;SDS011;10535;50.664;4.564;2023-05-29T13:26:46;9.10;;;2.00;;
20749;SDS011;10535;50.664;4.564;2023-05-29T13:29:12;13.37;;;3.00;;
20749;SDS011;10535;50.664;4.564;2023-05-29T13:31:38;4.37;;;1.70;;
20749;SDS011;10535;50.664;4.564;2023-05-29T13:34:04;3.67;;;1.53;;
20749;SDS011;10535;50.664;4.564;2023-05-29T13:36:36;3.63;;;1.47;;
20749;SDS011;10535;50.664;4.564;2023-05-29T13:39:10;7.47;;;2.43;;
20749;SDS011;10535;50.664;4.564;2023-05-29T13:41:35;4.53;;;1.70;;
20749;SDS011;10535;50.664;4.564;2023-05-29T13:44:50;5.50;;;1.80;;
20749;SDS011;10535;50.664;4.564;2023-05-29T13:47:16;5.73;;;1.53;;
20749;SDS011;10535;50.664;4.564;2023-05-29T13:50:04;1.83;;;1.27;;
20749;SDS011;10535;50.664;4.564;2023-05-29T13:52:43;7.27;;;1.73;;
20749;SDS011;10535;50.664;4.564;2023-05-29T13:55:12;1.40;;;1.20;;
20749;SDS011;10535;50.664;4.564;2023-05-29T13:58:01;2.73;;;1.30;;
20749;SDS011;10535;50.664;4.564;2023-05-29T14:00:32;5.33;;;1.57;;
20749;SDS011;10535;50.664;4.564;2023-05-29T14:03:49;5.50;;;1.83;;
20749;SDS011;10535;50.664;4.564;2023-05-29T14:06:21;4.47;;;1.47;;
20749;SDS011;10535;50.664;4.564;2023-05-29T14:08:48;6.60;;;1.43;;
20749;SDS011;10535;50.664;4.564;2023-05-29T14:11:48;5.20;;;1.33;;
20749;SDS011;10535;50.664;4.564;2023-05-29T14:14:14;3.37;;;1.80;;
20749;SDS011;10535;50.664;4.564;2023-05-29T14:16:41;5.80;;;1.40;;
20749;SDS011;10535;50.664;4.564;2023-05-29T14:19:06;5.87;;;1.40;;
20749;SDS011;10535;50.664;4.564;2023-05-29T14:21:32;4.30;;;1.97;;
20749;SDS011;10535;50.664;4.564;2023-05-29T14:23:57;3.93;;;2.07;;
20749;SDS011;10535;50.664;4.564;2023-05-29T14:26:23;7.40;;;1.80;;
20749;SDS011;10535;50.664;4.564;2023-05-29T14:28:51;3.83;;;1.73;;
20749;SDS011;10535;50.664;4.564;2023-05-29T14:31:17;5.17;;;1.83;;
20749;SDS011;10535;50.664;4.564;2023-05-29T14:33:42;1.80;;;1.20;;
20749;SDS011;10535;50.664;4.564;2023-05-29T14:36:08;2.03;;;1.00;;
20749;SDS011;10535;50.664;4.564;2023-05-29T14:38:34;3.43;;;1.40;;
20749;SDS011;10535;50.664;4.564;2023-05-29T14:41:01;7.60;;;1.30;;
20749;SDS011;10535;50.664;4.564;2023-05-29T14:43:27;7.53;;;1.80;;
20749;SDS011;10535;50.664;4.564;2023-05-29T14:45:53;4.87;;;1.43;;
20749;SDS011;10535;50.664;4.564;2023-05-29T14:48:20;8.00;;;1.77;;
20749;SDS011;10535;50.664;4.564;2023-05-29T14:50:47;4.27;;;1.43;;
20749;SDS011;10535;50.664;4.564;2023-05-29T14:53:55;5.17;;;1.80;;
20749;SDS011;10535;50.664;4.564;2023-05-29T14:57:00;2.97;;;1.37;;
20749;SDS011;10535;50.664;4.564;2023-05-29T14:59:49;6.77;;;1.77;;
20749;SDS011;10535;50.664;4.564;2023-05-29T15:02:47;5.97;;;1.57;;
20749;SDS011;10535;50.664;4.564;2023-05-29T15:05:55;5.57;;;1.93;;
20749;SDS011;10535;50.664;4.564;2023-05-29T15:08:41;5.73;;;2.27;;
20749;SDS011;10535;50.664;4.564;2023-05-29T15:11:09;4.03;;;1.70;;
20749;SDS011;10535;50.664;4.564;2023-05-29T15:13:40;3.87;;;1.37;;
20749;SDS011;10535;50.664;4.564;2023-05-29T15:16:32;3.20;;;1.80;;
20749;SDS011;10535;50.664;4.564;2023-05-29T15:19:03;5.43;;;2.23;;
20749;SDS011;10535;50.664;4.564;2023-05-29T15:21:32;4.60;;;1.73;;
20749;SDS011;10535;50.664;4.564;2023-05-29T15:24:46;5.73;;;1.60;;
20749;SDS011;10535;50.664;4.564;2023-05-29T15:27:37;3.13;;;1.80;;
20749;SDS011;10535;50.664;4.564;2023-05-29T15:30:38;5.00;;;1.90;;
20749;SDS011;10535;50.664;4.564;2023-05-29T15:33:03;3.67;;;1.50;;
20749;SDS011;10535;50.664;4.564;2023-05-29T15:35:36;2.77;;;1.50;;
20749;SDS011;10535;50.664;4.564;2023-05-29T15:38:23;5.73;;;1.97;;
20749;SDS011;10535;50.664;4.564;2023-05-29T15:41:01;4.60;;;1.73;;
20749;SDS011;10535;50.664;4.564;2023-05-29T15:43:34;4.93;;;1.53;;